createdAt,value
2022-08-22T00:00:17.249Z,76.05
2022-08-22T00:02:59.226Z,75.83
2022-08-22T00:03:08.325Z,72.11
2022-08-22T00:03:36.765Z,76.20
2022-08-22T00:06:52.677Z,76.13
2022-08-22T00:10:05.349Z,75.98
2022-08-22T00:13:17.865Z,76.31
2022-08-22T00:16:32.770Z,76.20
2022-08-22T00:19:50.080Z,76.39
2022-08-22T00:23:00.863Z,76.55
2022-08-22T00:26:17.712Z,76.60
2022-08-22T00:29:31.832Z,76.50
2022-08-22T00:32:44.715Z,76.57
2022-08-22T00:35:54.944Z,76.67
2022-08-22T00:39:16.745Z,76.58
2022-08-22T00:42:46.595Z,76.76
2022-08-22T00:46:13.441Z,76.74
2022-08-22T00:49:32.417Z,76.94
2022-08-22T00:53:05.070Z,76.75
2022-08-22T00:56:37.810Z,76.85
2022-08-22T01:00:03.587Z,76.76
2022-08-22T01:03:51.664Z,76.78
2022-08-22T01:07:11.943Z,76.87
2022-08-22T01:10:34.342Z,76.89
2022-08-22T01:13:55.312Z,76.86
2022-08-22T01:17:40.559Z,76.88
2022-08-22T01:21:32.554Z,76.91
2022-08-22T01:25:27.733Z,77.12
2022-08-22T01:29:12.377Z,77.04
2022-08-22T01:32:57.949Z,77.16
2022-08-22T01:36:50.619Z,77.03
2022-08-22T01:40:53.306Z,77.17
2022-08-22T01:44:32.436Z,77.00
2022-08-22T01:47:46.780Z,77.26
2022-08-22T01:50:58.148Z,77.26
2022-08-22T01:54:11.264Z,77.35
2022-08-22T01:57:18.557Z,77.18
2022-08-22T02:00:35.360Z,77.37
2022-08-22T02:03:54.758Z,77.38
2022-08-22T02:07:09.471Z,77.31
2022-08-22T02:10:24.104Z,77.49
2022-08-22T02:13:46.817Z,77.61
2022-08-22T02:16:58.567Z,77.48
2022-08-22T02:20:20.368Z,77.39
2022-08-22T02:23:31.941Z,77.56
2022-08-22T02:26:50.299Z,77.57
2022-08-22T02:30:03.583Z,77.56
2022-08-22T02:33:16.896Z,77.75
2022-08-22T02:36:28.035Z,77.71
2022-08-22T02:39:39.883Z,77.84
2022-08-22T02:42:52.881Z,77.88
2022-08-22T02:46:05.377Z,77.70
2022-08-22T02:49:22.548Z,77.85
2022-08-22T02:52:43.441Z,78.22
2022-08-22T02:55:58.459Z,78.12
2022-08-22T02:59:17.776Z,78.03
2022-08-22T03:02:39.657Z,78.16
2022-08-22T03:05:56.857Z,78.05
2022-08-22T03:09:21.509Z,78.07
2022-08-22T03:12:35.201Z,78.37
2022-08-22T03:15:49.542Z,78.39
2022-08-22T03:19:03.253Z,78.20
2022-08-22T03:22:17.056Z,78.46
2022-08-22T03:25:31.561Z,78.62
2022-08-22T03:28:59.220Z,78.75
2022-08-22T03:32:15.984Z,78.73
2022-08-22T03:35:28.438Z,78.71
2022-08-22T03:38:49.281Z,78.80
2022-08-22T03:42:09.758Z,78.63
2022-08-22T03:45:57.563Z,78.54
2022-08-22T03:49:35.469Z,78.44
2022-08-22T03:53:15.478Z,78.66
2022-08-22T03:57:01.784Z,78.94
2022-08-22T04:00:29.116Z,78.77
2022-08-22T04:04:02.570Z,78.99
2022-08-22T04:07:31.685Z,78.73
2022-08-22T04:11:02.628Z,79.10
2022-08-22T04:14:54.759Z,79.02
2022-08-22T04:18:23.463Z,78.81
2022-08-22T04:21:50.205Z,79.16
2022-08-22T04:25:07.552Z,79.04
2022-08-22T04:28:18.778Z,78.80
2022-08-22T04:31:34.856Z,78.96
2022-08-22T04:34:46.858Z,78.96
2022-08-22T04:37:58.946Z,79.04
2022-08-22T04:41:10.867Z,79.34
2022-08-22T04:44:28.260Z,79.02
2022-08-22T04:47:38.875Z,79.39
2022-08-22T04:50:51.327Z,79.44
2022-08-22T04:54:15.385Z,79.31
2022-08-22T04:57:29.726Z,79.56
2022-08-22T05:00:43.688Z,79.40
2022-08-22T05:03:58.206Z,79.71
2022-08-22T05:07:12.987Z,79.68
2022-08-22T05:10:25.649Z,79.62
2022-08-22T05:13:39.276Z,79.58
2022-08-22T05:16:50.232Z,79.66
2022-08-22T05:20:01.702Z,80.01
2022-08-22T05:23:17.252Z,79.85
2022-08-22T05:26:25.219Z,79.87
2022-08-22T05:29:34.301Z,79.89
2022-08-22T05:32:49.405Z,79.91
2022-08-22T05:36:04.372Z,80.09
2022-08-22T05:39:14.881Z,79.81
2022-08-22T05:42:27.361Z,80.09
2022-08-22T05:45:35.700Z,80.18
2022-08-22T05:48:45.571Z,80.10
2022-08-22T05:52:00.147Z,80.11
2022-08-22T05:55:12.100Z,80.15
2022-08-22T05:58:39.908Z,80.34
2022-08-22T06:01:56.416Z,80.34
2022-08-22T06:05:11.758Z,80.22
2022-08-22T06:08:21.632Z,80.21
2022-08-22T06:11:34.238Z,80.21
2022-08-22T06:14:46.700Z,80.49
2022-08-22T06:17:58.540Z,80.25
2022-08-22T06:21:09.975Z,80.20
2022-08-22T06:24:22.157Z,79.95
2022-08-22T06:27:31.263Z,80.17
2022-08-22T06:30:39.842Z,80.36
2022-08-22T06:33:49.290Z,80.37
2022-08-22T06:36:58.701Z,80.22
2022-08-22T06:40:09.395Z,80.25
2022-08-22T06:43:16.485Z,80.41
2022-08-22T06:46:26.050Z,80.61
2022-08-22T06:49:34.639Z,80.62
2022-08-22T06:52:51.518Z,80.54
2022-08-22T06:56:03.059Z,80.22
2022-08-22T06:59:13.536Z,80.35
2022-08-22T07:02:28.949Z,80.38
2022-08-22T07:05:40.741Z,80.48
2022-08-22T07:08:47.667Z,80.74
2022-08-22T07:11:56.088Z,80.97
2022-08-22T07:15:14.520Z,81.24
2022-08-22T07:18:23.469Z,80.96
2022-08-22T07:21:36.263Z,80.94
2022-08-22T07:24:48.319Z,81.07
2022-08-22T07:28:15.907Z,81.33
2022-08-22T07:31:31.777Z,81.50
2022-08-22T07:34:51.289Z,81.49
2022-08-22T07:38:06.598Z,81.46
2022-08-22T07:41:20.203Z,81.40
2022-08-22T07:44:32.428Z,81.30
2022-08-22T07:47:53.356Z,81.37
2022-08-22T07:51:08.439Z,81.27
2022-08-22T07:54:17.953Z,81.45
2022-08-22T07:57:29.823Z,81.63
2022-08-22T08:00:42.922Z,81.53
2022-08-22T08:03:55.777Z,81.82
2022-08-22T08:07:04.766Z,81.39
2022-08-22T08:10:17.855Z,81.53
2022-08-22T08:13:28.236Z,81.52
2022-08-22T08:16:42.726Z,81.37
2022-08-22T08:19:50.847Z,81.37
2022-08-22T08:22:59.651Z,81.24
2022-08-22T08:26:09.920Z,81.40
2022-08-22T08:29:20.060Z,81.48
2022-08-22T08:32:29.286Z,81.22
2022-08-22T08:35:42.424Z,80.97
2022-08-22T08:39:17.388Z,81.32
2022-08-22T08:42:59.728Z,81.23
2022-08-22T08:46:36.688Z,81.20
2022-08-22T08:50:09.489Z,81.01
2022-08-22T08:53:43.335Z,80.97
2022-08-22T08:56:59.661Z,81.03
2022-08-22T09:00:14.732Z,81.12
2022-08-22T09:07:54.720Z,81.29
2022-08-22T09:11:34.946Z,81.42
2022-08-22T09:14:56.181Z,81.40
2022-08-22T09:18:30.984Z,81.04
2022-08-22T09:22:14.449Z,81.10
2022-08-22T09:25:39.276Z,81.51
2022-08-22T09:28:55.894Z,81.61
2022-08-22T09:32:13.064Z,81.60
2022-08-22T09:35:28.377Z,81.49
2022-08-22T09:38:52.140Z,81.41
2022-08-22T09:40:15.327Z,81.28
2022-08-22T09:42:03.671Z,81.07
2022-08-22T09:45:50.010Z,81.24
2022-08-22T09:49:06.621Z,81.35
2022-08-22T09:52:35.677Z,81.42
2022-08-22T09:55:57.088Z,81.55
2022-08-22T09:59:10.022Z,81.45
2022-08-22T10:02:30.473Z,81.33
2022-08-22T10:05:46.525Z,81.61
2022-08-22T10:09:03.749Z,81.42
2022-08-22T10:12:15.523Z,81.54
2022-08-22T10:15:30.950Z,81.55
2022-08-22T10:18:52.532Z,81.66
2022-08-22T10:22:45.720Z,81.93
2022-08-22T10:25:56.249Z,81.81
2022-08-22T10:29:30.697Z,81.49
2022-08-22T10:32:43.027Z,82.06
2022-08-22T10:36:11.939Z,81.86
2022-08-22T10:39:24.940Z,81.16
2022-08-22T10:42:35.857Z,81.36
2022-08-22T10:45:46.572Z,81.34
2022-08-22T10:48:58.637Z,81.37
2022-08-22T10:52:17.502Z,80.97
2022-08-22T10:55:28.746Z,80.85
2022-08-22T10:58:41.860Z,80.75
2022-08-22T11:02:01.814Z,80.94
2022-08-22T11:05:23.913Z,80.87
2022-08-22T11:08:50.652Z,80.72
2022-08-22T11:12:04.317Z,80.60
2022-08-22T11:15:28.468Z,80.46
2022-08-22T11:19:03.165Z,80.67
2022-08-22T11:22:33.831Z,80.44
2022-08-22T11:25:52.538Z,79.93
2022-08-22T11:29:19.212Z,79.95
2022-08-22T11:32:35.715Z,80.13
2022-08-22T11:35:48.167Z,79.76
2022-08-22T11:39:13.737Z,80.02
2022-08-22T11:42:33.248Z,80.07
2022-08-22T11:45:44.533Z,79.71
2022-08-22T11:49:08.955Z,80.01
2022-08-22T11:52:26.324Z,80.06
2022-08-22T11:55:38.369Z,80.11
2022-08-22T11:58:57.585Z,79.87
2022-08-22T12:02:08.761Z,80.39
2022-08-22T12:05:26.296Z,80.17
2022-08-22T12:09:07.324Z,79.66
2022-08-22T12:12:37.561Z,79.24
2022-08-22T12:15:54.022Z,78.80
2022-08-22T12:19:11.185Z,78.95
2022-08-22T12:22:48.695Z,79.05
2022-08-22T12:26:10.733Z,78.47
2022-08-22T12:29:33.820Z,78.58
2022-08-22T12:33:15.489Z,78.39
2022-08-22T12:36:50.561Z,78.19
2022-08-22T12:40:18.238Z,78.36
2022-08-22T12:43:44.649Z,78.70
2022-08-22T12:47:04.679Z,78.65
2022-08-22T12:50:26.425Z,78.00
2022-08-22T12:54:06.501Z,77.60
2022-08-22T12:57:25.694Z,77.42
2022-08-22T13:00:37.832Z,76.84
2022-08-22T13:03:50.908Z,76.70
2022-08-22T13:07:04.164Z,76.60
2022-08-22T13:10:33.380Z,76.81
2022-08-22T13:13:42.988Z,76.30
2022-08-22T13:17:10.952Z,76.17
2022-08-22T13:20:35.373Z,75.79
2022-08-22T13:23:46.079Z,75.79
2022-08-22T13:27:02.233Z,75.68
2022-08-22T13:30:19.178Z,75.58
2022-08-22T13:33:30.247Z,75.12
2022-08-22T13:36:51.700Z,75.11
2022-08-22T13:40:03.311Z,75.15
2022-08-22T13:43:14.581Z,75.05
2022-08-22T13:46:30.321Z,74.73
2022-08-22T13:49:45.428Z,74.58
2022-08-22T13:52:58.446Z,74.25
2022-08-22T13:56:15.533Z,74.45
2022-08-22T13:59:50.117Z,74.17
2022-08-22T14:03:08.212Z,73.89
2022-08-22T14:06:35.206Z,73.85
2022-08-22T14:09:54.354Z,73.67
2022-08-22T14:13:41.003Z,73.33
2022-08-22T14:16:53.072Z,73.52
2022-08-22T14:20:03.954Z,73.56
2022-08-22T14:23:19.018Z,73.28
2022-08-22T14:26:37.370Z,73.01
2022-08-22T14:29:57.615Z,73.03
2022-08-22T14:33:14.329Z,72.81
2022-08-22T14:36:24.824Z,72.72
2022-08-22T14:39:38.222Z,72.45
2022-08-22T14:42:52.798Z,72.21
2022-08-22T14:46:02.352Z,72.40
2022-08-22T14:49:29.089Z,72.16
2022-08-22T14:52:42.869Z,72.04
2022-08-22T14:56:00.240Z,72.00
2022-08-22T14:59:10.104Z,71.89
2022-08-22T15:02:29.332Z,71.60
2022-08-22T15:05:45.702Z,71.63
2022-08-22T15:08:53.785Z,71.55
2022-08-22T15:12:03.562Z,71.26
2022-08-22T15:15:16.241Z,71.46
2022-08-22T15:18:34.976Z,71.51
2022-08-22T15:21:41.782Z,71.44
2022-08-22T15:24:54.965Z,71.32
2022-08-22T15:28:06.093Z,71.33
2022-08-22T15:31:18.753Z,71.23
2022-08-22T15:34:32.672Z,71.07
2022-08-22T15:37:58.053Z,70.72
2022-08-22T15:41:38.490Z,70.88
2022-08-22T15:44:57.360Z,70.44
2022-08-22T15:48:05.872Z,70.49
2022-08-22T15:51:14.832Z,70.66
2022-08-22T15:54:25.372Z,70.36
2022-08-22T15:57:35.113Z,70.30
2022-08-22T16:00:45.649Z,70.44
2022-08-22T16:04:00.301Z,70.36
2022-08-22T16:07:26.769Z,70.41
2022-08-22T16:10:38.103Z,70.19
2022-08-22T16:13:46.533Z,70.33
2022-08-22T16:17:04.093Z,70.11
2022-08-22T16:20:56.237Z,70.15
2022-08-22T16:24:33.887Z,70.14
2022-08-22T16:27:58.820Z,70.10
2022-08-22T16:31:20.575Z,70.17
2022-08-22T16:34:39.923Z,70.04
2022-08-22T16:37:51.082Z,70.26
2022-08-22T16:40:58.079Z,70.44
2022-08-22T16:44:36.296Z,70.58
2022-08-22T16:47:56.682Z,70.56
2022-08-22T16:51:13.428Z,70.72
2022-08-22T16:54:47.453Z,70.87
2022-08-22T16:58:10.180Z,71.14
2022-08-22T17:01:24.357Z,71.26
2022-08-22T17:04:41.448Z,71.60
2022-08-22T17:08:01.161Z,71.51
2022-08-22T17:11:23.433Z,71.55
2022-08-22T17:14:57.498Z,71.64
2022-08-22T17:18:35.380Z,71.90
2022-08-22T17:21:51.014Z,71.78
2022-08-22T17:25:13.833Z,71.96
2022-08-22T17:28:33.938Z,72.06
2022-08-22T17:31:51.672Z,71.93
2022-08-22T17:35:14.042Z,72.15
2022-08-22T17:38:31.509Z,72.18
2022-08-22T17:41:48.221Z,72.60
2022-08-22T17:45:04.652Z,72.57
2022-08-22T17:48:17.512Z,72.75
2022-08-22T17:51:29.489Z,72.89
2022-08-22T17:54:42.572Z,72.98
2022-08-22T17:57:54.718Z,73.23
2022-08-22T18:01:10.867Z,73.30
2022-08-22T18:04:26.082Z,73.44
2022-08-22T18:08:00.212Z,73.48
2022-08-22T18:11:14.834Z,73.64
2022-08-22T18:14:31.689Z,73.85
2022-08-22T18:17:43.773Z,73.92
2022-08-22T18:20:56.902Z,74.10
2022-08-22T18:24:17.028Z,74.35
2022-08-22T18:27:35.764Z,74.55
2022-08-22T18:31:00.164Z,74.64
2022-08-22T18:34:17.898Z,74.79
2022-08-22T18:37:49.893Z,74.99
2022-08-22T18:41:08.548Z,74.98
2022-08-22T18:44:21.993Z,75.18
2022-08-22T18:47:32.547Z,75.11
2022-08-22T18:50:41.036Z,75.38
2022-08-22T18:53:51.965Z,75.56
2022-08-22T18:57:07.572Z,75.51
2022-08-22T19:00:17.238Z,75.42
2022-08-22T19:03:37.322Z,75.76
2022-08-22T19:07:07.174Z,75.64
2022-08-22T19:10:38.947Z,76.05
2022-08-22T19:14:07.560Z,76.12
2022-08-22T19:17:31.181Z,76.21
2022-08-22T19:21:03.868Z,76.36
2022-08-22T19:24:15.158Z,76.32
2022-08-22T19:27:32.197Z,75.95
2022-08-22T19:30:49.493Z,76.00
2022-08-22T19:34:19.119Z,76.31
2022-08-22T19:37:34.214Z,76.76
2022-08-22T19:40:59.133Z,76.97
2022-08-22T19:44:07.773Z,76.96
2022-08-22T19:47:36.831Z,76.86
2022-08-22T19:50:45.537Z,77.31
2022-08-22T19:54:05.171Z,77.42
2022-08-22T19:57:21.169Z,77.56
2022-08-22T20:00:52.854Z,77.65
2022-08-22T20:04:08.646Z,77.52
2022-08-22T20:07:28.436Z,77.78
2022-08-22T20:10:54.457Z,77.73
2022-08-22T20:14:30.924Z,77.65
2022-08-22T20:18:11.687Z,77.32
2022-08-22T20:21:14.519Z,77.38
2022-08-22T20:24:29.128Z,77.61
2022-08-22T20:27:41.927Z,77.59
2022-08-22T20:30:53.863Z,77.85
2022-08-22T20:34:04.023Z,77.74
2022-08-22T20:37:40.273Z,77.74
2022-08-22T20:40:57.364Z,77.69
2022-08-22T20:44:14.272Z,77.51
2022-08-22T20:47:24.382Z,77.73
2022-08-22T20:50:31.659Z,77.78
2022-08-22T20:53:38.909Z,77.83
2022-08-22T20:56:53.690Z,77.96
2022-08-22T21:00:06.724Z,77.78
2022-08-22T21:03:34.147Z,77.81
2022-08-22T21:06:40.468Z,77.89
2022-08-22T21:10:17.765Z,78.07
2022-08-22T21:13:30.220Z,78.04
2022-08-22T21:16:36.553Z,77.81
2022-08-22T21:19:42.852Z,78.23
2022-08-22T21:22:49.615Z,78.28
2022-08-22T21:25:59.944Z,78.43
2022-08-22T21:29:10.289Z,78.51
2022-08-22T21:32:30.407Z,78.51
2022-08-22T21:35:36.983Z,78.42
2022-08-22T21:38:47.919Z,78.64
2022-08-22T21:42:10.117Z,78.62
2022-08-22T21:45:30.282Z,78.46
2022-08-22T21:48:45.048Z,78.62
2022-08-22T21:51:51.819Z,78.85
2022-08-22T21:55:13.343Z,78.73
2022-08-22T21:58:36.941Z,78.71
2022-08-22T22:01:45.950Z,78.82
2022-08-22T22:04:52.322Z,78.76
2022-08-22T22:07:58.708Z,78.76
2022-08-22T22:11:08.980Z,78.88
2022-08-22T22:14:15.292Z,79.07
2022-08-22T22:17:22.355Z,79.00
2022-08-22T22:20:29.644Z,78.88
2022-08-22T22:23:36.002Z,79.05
2022-08-22T22:26:42.190Z,79.07
2022-08-22T22:29:48.709Z,79.07
2022-08-22T22:32:55.121Z,78.98
2022-08-22T22:36:06.075Z,79.16
2022-08-22T22:39:12.513Z,79.17
2022-08-22T22:42:18.766Z,79.06
2022-08-22T22:45:25.364Z,79.09
2022-08-22T22:48:31.738Z,79.25
2022-08-22T22:51:38.073Z,78.99
2022-08-22T22:54:44.488Z,79.13
2022-08-22T22:57:59.298Z,79.20
2022-08-22T23:01:12.193Z,79.17
2022-08-22T23:04:19.572Z,79.09
2022-08-22T23:07:27.326Z,79.04
2022-08-22T23:10:34.643Z,78.92
2022-08-22T23:13:43.147Z,78.99
2022-08-22T23:16:49.900Z,79.01
2022-08-22T23:19:56.292Z,79.08
2022-08-22T23:23:02.577Z,79.27
2022-08-22T23:26:09.340Z,79.20
2022-08-22T23:29:15.728Z,79.12
2022-08-22T23:32:24.256Z,79.26
2022-08-22T23:35:30.881Z,79.20
2022-08-22T23:38:37.132Z,79.15
2022-08-22T23:41:44.353Z,79.06
2022-08-22T23:44:52.801Z,79.01
2022-08-22T23:47:59.224Z,79.02
2022-08-22T23:51:06.008Z,79.26
2022-08-22T23:54:13.081Z,79.29
2022-08-22T23:57:19.393Z,79.11
